Time;durP1;ratioP1;P1;durP2;ratioP2;P2;SDS_P1;SDS_P2;PMS_P1;PMS_P2;Temp;Humidity;BMP_temperature;BMP_pressure;BME280_temperature;BME280_humidity;BME280_pressure;Samples;Min_cycle;Max_cycle;Signal;HPM_P1;HPM_P2
2022/06/04 00:00:28;;;;;;;4.60;2.58;;;16.30;87.90;;;;;;5010764;28;20117;-48
2022/06/04 00:02:54;;;;;;;3.78;2.40;;;16.20;88.10;;;;;;5011290;28;20060;-49
2022/06/04 00:05:23;;;;;;;2.65;2.28;;;16.20;89.30;;;;;;5009856;28;20018;-48
2022/06/04 00:07:50;;;;;;;4.43;2.33;;;16.20;88.90;;;;;;5009912;28;20030;-49
2022/06/04 00:15:49;;;;;;;6.10;2.40;;;16.10;89.60;;;;;;5011436;28;20060;-51
2022/06/04 00:18:16;;;;;;;3.63;2.10;;;16.10;90.10;;;;;;5011111;28;20029;-52
2022/06/04 00:20:43;;;;;;;3.40;1.95;;;16.10;90.30;;;;;;5010378;28;20495;-50
2022/06/04 00:23:10;;;;;;;4.22;2.50;;;16.00;90.60;;;;;;5010967;28;20036;-51
2022/06/04 00:25:38;;;;;;;4.03;2.35;;;16.00;90.70;;;;;;5023897;28;20013;-51
2022/06/04 00:28:06;;;;;;;3.35;2.63;;;16.00;90.70;;;;;;5013424;28;20053;-51
2022/06/04 00:30:32;;;;;;;4.35;2.45;;;15.90;91.00;;;;;;5010016;28;20026;-49
2022/06/04 00:32:58;;;;;;;4.90;2.47;;;15.90;91.20;;;;;;5010690;28;20033;-51
2022/06/04 00:35:24;;;;;;;4.95;2.53;;;15.90;91.40;;;;;;5010939;28;20470;-53
2022/06/04 00:37:50;;;;;;;6.88;2.70;;;15.90;91.60;;;;;;5011068;28;20406;-49
2022/06/04 00:40:37;;;;;;;3.50;2.40;;;15.80;91.90;;;;;;5009122;28;20030;-51
2022/06/04 00:43:03;;;;;;;5.05;3.15;;;15.80;92.20;;;;;;5009229;28;20033;-51
2022/06/04 00:45:34;;;;;;;3.45;2.50;;;15.80;92.30;;;;;;5010558;28;20022;-49
2022/06/04 00:48:03;;;;;;;3.30;2.70;;;15.70;92.50;;;;;;5010569;28;20076;-51
2022/06/04 00:50:31;;;;;;;3.60;2.25;;;15.70;92.80;;;;;;5010061;28;20073;-51
2022/06/04 00:52:58;;;;;;;3.67;2.33;;;15.70;92.70;;;;;;5010575;28;20036;-51
2022/06/04 00:55:25;;;;;;;5.07;2.75;;;15.70;93.20;;;;;;5021487;28;20060;-50
2022/06/04 00:58:05;;;;;;;3.17;2.20;;;15.60;93.30;;;;;;5016228;28;20109;-50
2022/06/04 01:00:41;;;;;;;8.55;2.78;;;15.60;93.70;;;;;;5009741;28;20026;-51
2022/06/04 01:03:30;;;;;;;4.05;2.88;;;15.60;93.30;;;;;;5010172;28;20036;-49
2022/06/04 01:06:04;;;;;;;5.70;2.70;;;15.60;93.60;;;;;;5010123;28;20026;-49
2022/06/04 01:08:45;;;;;;;5.50;2.45;;;15.50;93.60;;;;;;5010161;28;20025;-50
2022/06/04 01:12:09;;;;;;;4.35;2.88;;;15.50;94.00;;;;;;5009397;28;20169;-49
2022/06/04 01:14:34;;;;;;;4.57;2.80;;;15.40;94.10;;;;;;5009801;28;20449;-54
2022/06/04 01:17:10;;;;;;;3.90;3.00;;;15.40;94.10;;;;;;5010289;28;20375;-50
2022/06/04 01:20:00;;;;;;;3.25;2.33;;;15.30;94.60;;;;;;5009633;28;20030;-52
2022/06/04 01:22:48;;;;;;;5.22;2.83;;;15.20;94.70;;;;;;5008865;28;20099;-49
2022/06/04 01:25:25;;;;;;;7.40;2.50;;;15.20;95.50;;;;;;5019781;28;20026;-50
2022/06/04 01:28:06;;;;;;;3.45;2.90;;;15.20;95.40;;;;;;5029891;28;20053;-49
2022/06/04 01:30:39;;;;;;;4.68;2.65;;;15.10;95.80;;;;;;5027944;28;20382;-47
2022/06/04 01:33:13;;;;;;;12.15;2.70;;;15.00;96.10;;;;;;5029830;28;20398;-47
2022/06/04 01:35:47;;;;;;;6.13;2.65;;;14.90;96.50;;;;;;5029610;28;20556;-46
2022/06/04 01:38:31;;;;;;;3.70;2.85;;;14.80;96.80;;;;;;5029728;28;20068;-48
2022/06/04 01:41:23;;;;;;;2.90;2.58;;;14.80;97.10;;;;;;5027493;28;20030;-49
2022/06/04 01:43:59;;;;;;;3.15;2.53;;;14.80;97.90;;;;;;5029647;28;20026;-52
2022/06/04 01:46:31;;;;;;;3.65;2.58;;;14.80;98.00;;;;;;5029222;28;20026;-48
2022/06/04 01:49:11;;;;;;;3.13;2.42;;;14.70;98.00;;;;;;5029174;28;20538;-49
2022/06/04 01:51:37;;;;;;;4.05;2.72;;;14.70;98.10;;;;;;5027684;28;20021;-50
2022/06/04 01:54:10;;;;;;;5.63;3.10;;;14.70;98.60;;;;;;5029142;28;20478;-48
2022/06/04 01:56:40;;;;;;;3.45;2.55;;;14.60;98.70;;;;;;5020894;28;20026;-47
2022/06/04 01:59:25;;;;;;;6.28;2.95;;;14.60;99.30;;;;;;5029019;28;20104;-47
2022/06/04 02:01:54;;;;;;;3.78;2.97;;;14.50;99.20;;;;;;5028520;28;20036;-47
2022/06/04 02:04:29;;;;;;;5.47;2.83;;;14.50;99.50;;;;;;5028956;28;20021;-49
2022/06/04 02:09:53;;;;;;;3.65;2.70;;;14.50;99.80;;;;;;5028699;28;20419;-49
2022/06/04 02:12:20;;;;;;;5.85;2.72;;;14.40;99.90;;;;;;5028539;28;20029;-46
2022/06/04 02:14:45;;;;;;;6.22;3.00;;;14.40;99.90;;;;;;5028681;28;20033;-49
2022/06/04 02:17:17;;;;;;;3.05;2.75;;;14.30;99.90;;;;;;5029000;28;20413;-49
2022/06/04 02:19:44;;;;;;;8.35;3.50;;;14.30;99.90;;;;;;5027946;28;20040;-46
2022/06/04 02:22:10;;;;;;;5.65;3.10;;;14.30;99.90;;;;;;5028583;28;20036;-48
2022/06/04 02:24:36;;;;;;;6.38;2.92;;;14.30;99.90;;;;;;5028724;28;20083;-48
2022/06/04 02:27:05;;;;;;;3.08;2.70;;;14.30;99.90;;;;;;5021018;28;20026;-47
2022/06/04 02:29:30;;;;;;;9.93;3.47;;;14.20;99.90;;;;;;5008257;28;20026;-47
2022/06/04 02:32:15;;;;;;;4.60;3.33;;;14.10;99.90;;;;;;5008879;28;20271;-50
2022/06/04 02:35:03;;;;;;;4.20;2.72;;;14.10;99.90;;;;;;5008816;28;20033;-49
2022/06/04 02:37:39;;;;;;;5.65;3.08;;;14.10;99.90;;;;;;5009055;28;20030;-50
2022/06/04 02:40:29;;;;;;;5.35;3.47;;;14.10;99.90;;;;;;5007871;28;20025;-52
2022/06/04 02:43:18;;;;;;;6.10;2.72;;;14.10;99.90;;;;;;5008732;28;20037;-47
2022/06/04 02:45:56;;;;;;;3.28;2.55;;;14.10;99.90;;;;;;5008594;28;20030;-47
2022/06/04 02:48:38;;;;;;;4.72;3.20;;;14.20;99.90;;;;;;5008644;28;20025;-48
2022/06/04 02:51:14;;;;;;;3.53;2.78;;;14.20;99.90;;;;;;5008099;28;20446;-49
2022/06/04 02:53:41;;;;;;;4.90;2.88;;;14.10;99.90;;;;;;5008528;28;20112;-47
2022/06/04 02:56:11;;;;;;;4.05;2.65;;;14.20;99.90;;;;;;5024009;28;20079;-48
2022/06/04 02:58:39;;;;;;;3.25;2.70;;;14.10;99.90;;;;;;5007395;28;20030;-49
2022/06/04 03:01:08;;;;;;;3.15;2.60;;;14.10;99.90;;;;;;5008183;28;20064;-47
2022/06/04 03:03:34;;;;;;;4.15;2.33;;;14.10;99.90;;;;;;5010846;28;20101;-47
2022/06/04 03:06:03;;;;;;;8.80;3.10;;;14.10;99.90;;;;;;5012726;28;20387;-48
2022/06/04 03:08:32;;;;;;;3.85;2.63;;;14.10;99.90;;;;;;5012356;28;20034;-50
2022/06/04 03:10:58;;;;;;;2.55;2.03;;;14.00;99.90;;;;;;5011842;28;20423;-47
2022/06/04 03:13:24;;;;;;;4.95;2.42;;;14.00;99.90;;;;;;5012328;28;20026;-48
2022/06/04 03:15:50;;;;;;;2.83;2.58;;;14.00;99.90;;;;;;5012407;28;20027;-49
2022/06/04 03:18:16;;;;;;;4.88;2.38;;;14.00;99.90;;;;;;5012254;28;20056;-47
2022/06/04 03:20:42;;;;;;;3.78;2.60;;;14.00;99.90;;;;;;5010366;28;20169;-48
2022/06/04 03:23:08;;;;;;;4.35;2.67;;;13.90;99.90;;;;;;5012232;28;20491;-51
2022/06/04 03:25:35;;;;;;;6.28;3.35;;;14.00;99.90;;;;;;5024307;28;20025;-51
2022/06/04 03:28:01;;;;;;;5.47;3.38;;;13.90;99.90;;;;;;5016492;28;20481;-50
2022/06/04 03:30:27;;;;;;;4.63;2.88;;;13.90;99.90;;;;;;5011477;28;20022;-51
2022/06/04 03:32:53;;;;;;;3.85;2.55;;;13.90;99.90;;;;;;5012010;28;20030;-51
2022/06/04 03:35:19;;;;;;;3.58;2.72;;;13.90;99.90;;;;;;5011939;28;20029;-51
2022/06/04 03:37:45;;;;;;;4.30;3.13;;;13.80;99.90;;;;;;5011689;28;20491;-51
2022/06/04 03:40:11;;;;;;;5.30;2.58;;;13.80;99.90;;;;;;5011135;28;20088;-47
2022/06/04 03:42:37;;;;;;;4.78;2.75;;;13.80;99.90;;;;;;5011702;28;20229;-48
2022/06/04 03:45:05;;;;;;;6.25;2.47;;;13.80;99.90;;;;;;5011685;28;20518;-50
2022/06/04 03:47:36;;;;;;;6.13;2.60;;;13.80;99.90;;;;;;5011350;28;20046;-48
2022/06/04 03:50:06;;;;;;;5.40;2.90;;;13.80;99.90;;;;;;5010759;28;20033;-49
2022/06/04 03:52:32;;;;;;;3.83;2.60;;;13.80;99.90;;;;;;5011336;28;20116;-50
2022/06/04 03:54:58;;;;;;;6.15;2.78;;;13.80;99.90;;;;;;5018091;28;20265;-50
2022/06/04 03:57:38;;;;;;;5.30;3.13;;;13.80;99.90;;;;;;5020780;28;20467;-51
2022/06/04 04:00:07;;;;;;;3.17;2.42;;;13.70;99.90;;;;;;5009727;28;20100;-48
2022/06/04 04:02:33;;;;;;;3.47;2.30;;;13.70;99.90;;;;;;5011259;28;20189;-51
2022/06/04 04:04:59;;;;;;;3.13;2.50;;;13.70;99.90;;;;;;5011167;28;20246;-48
2022/06/04 04:07:24;;;;;;;2.70;2.25;;;13.70;99.90;;;;;;5011270;28;20026;-48
2022/06/04 04:09:50;;;;;;;2.25;2.05;;;13.70;99.90;;;;;;5010690;28;20037;-48
2022/06/04 04:12:15;;;;;;;2.53;2.28;;;13.70;99.90;;;;;;5011181;28;20470;-49
2022/06/04 04:14:41;;;;;;;3.47;2.40;;;13.70;99.90;;;;;;5010104;28;20040;-48
2022/06/04 04:17:08;;;;;;;3.83;2.47;;;13.70;99.90;;;;;;5011275;28;20100;-48
2022/06/04 04:19:33;;;;;;;2.95;2.28;;;13.70;99.80;;;;;;5009294;28;20026;-48
2022/06/04 04:21:59;;;;;;;3.03;2.38;;;13.80;99.90;;;;;;5011288;28;20025;-48
2022/06/04 04:24:25;;;;;;;2.28;2.03;;;13.80;99.90;;;;;;5014431;28;20030;-50
2022/06/04 04:26:51;;;;;;;2.10;1.90;;;13.80;99.70;;;;;;5024554;28;20022;-48
2022/06/04 04:29:16;;;;;;;2.50;2.30;;;13.90;99.20;;;;;;5010855;28;20109;-48
2022/06/04 04:31:42;;;;;;;3.00;2.40;;;13.90;98.50;;;;;;5010042;28;20038;-49
2022/06/04 04:34:08;;;;;;;3.75;2.05;;;13.90;98.30;;;;;;5024879;28;20025;-48
2022/06/04 04:36:33;;;;;;;4.40;2.95;;;13.90;98.60;;;;;;5028746;28;20026;-48
2022/06/04 04:38:59;;;;;;;2.78;1.98;;;13.90;98.40;;;;;;5030468;28;20048;-47
2022/06/04 04:41:25;;;;;;;2.38;2.17;;;13.90;98.90;;;;;;5025926;28;20048;-51
2022/06/04 04:43:51;;;;;;;2.45;2.20;;;13.90;98.50;;;;;;5020164;28;20026;-50
2022/06/04 04:46:18;;;;;;;4.57;2.05;;;13.90;99.10;;;;;;5019389;28;20502;-49
2022/06/04 04:48:45;;;;;;;3.55;1.90;;;14.00;98.00;;;;;;5021192;28;20542;-49
2022/06/04 04:51:21;;;;;;;3.40;2.25;;;14.10;98.10;;;;;;5019414;28;20180;-48
2022/06/04 04:53:47;;;;;;;2.47;2.13;;;14.00;99.10;;;;;;5021181;28;20064;-48
2022/06/04 04:56:22;;;;;;;2.10;1.85;;;14.10;98.40;;;;;;5025584;28;20044;-50
2022/06/04 04:58:48;;;;;;;3.03;2.20;;;14.20;99.90;;;;;;5020902;28;20537;-47
2022/06/04 05:01:25;;;;;;;4.18;1.92;;;14.10;98.90;;;;;;5019196;28;20030;-48
2022/06/04 05:03:52;;;;;;;2.58;2.22;;;14.10;98.10;;;;;;5020641;28;20032;-54
2022/06/04 05:06:20;;;;;;;3.00;2.10;;;14.20;98.00;;;;;;5020289;28;20123;-48
2022/06/04 05:08:48;;;;;;;6.78;2.17;;;14.30;98.70;;;;;;5029431;28;20546;-48
2022/06/04 05:11:18;;;;;;;3.67;2.45;;;14.30;97.70;;;;;;5028653;28;20036;-48
2022/06/04 05:13:49;;;;;;;3.67;2.08;;;14.30;97.20;;;;;;5029198;28;20029;-48
2022/06/04 05:16:19;;;;;;;3.85;2.17;;;14.40;96.90;;;;;;5029457;28;20021;-48
2022/06/04 05:18:46;;;;;;;7.03;2.72;;;14.40;97.10;;;;;;5029561;28;20056;-49
2022/06/04 05:21:18;;;;;;;3.20;2.50;;;14.50;96.40;;;;;;5027477;28;20013;-48
2022/06/04 05:23:43;;;;;;;2.88;2.50;;;14.60;95.80;;;;;;5029530;28;20017;-48
2022/06/04 05:26:09;;;;;;;2.72;2.10;;;14.60;96.00;;;;;;5028477;28;20022;-50
2022/06/04 05:28:35;;;;;;;5.43;2.72;;;14.60;95.80;;;;;;5027785;28;20104;-50
2022/06/04 05:31:00;;;;;;;4.00;2.50;;;14.50;95.30;;;;;;5027127;28;20617;-51
2022/06/04 05:33:26;;;;;;;2.78;1.92;;;14.60;95.40;;;;;;5028075;28;20088;-49
2022/06/04 05:35:51;;;;;;;3.30;2.50;;;14.70;95.50;;;;;;5029237;28;20083;-48
2022/06/04 05:38:17;;;;;;;2.35;2.10;;;14.70;95.70;;;;;;5028021;28;20030;-48
2022/06/04 05:40:42;;;;;;;3.63;2.30;;;14.80;95.30;;;;;;5028427;28;20513;-51
2022/06/04 05:43:08;;;;;;;5.90;2.80;;;14.80;95.20;;;;;;5029335;28;20109;-51
2022/06/04 05:45:33;;;;;;;2.67;2.05;;;14.90;94.70;;;;;;5029402;28;20426;-51
2022/06/04 05:47:59;;;;;;;4.38;1.90;;;15.00;95.10;;;;;;5029088;28;20029;-49
2022/06/04 05:50:24;;;;;;;4.63;2.03;;;15.10;94.60;;;;;;5028480;28;20036;-47
2022/06/04 05:52:49;;;;;;;3.47;2.13;;;15.10;94.90;;;;;;5029190;28;20479;-47
2022/06/04 05:55:15;;;;;;;3.15;2.10;;;15.30;94.20;;;;;;5029086;28;20030;-47
2022/06/04 05:57:41;;;;;;;4.43;2.00;;;15.40;93.50;;;;;;5016376;28;20061;-47
2022/06/04 06:00:08;;;;;;;2.50;1.67;;;15.50;93.40;;;;;;5008647;28;20030;-49
2022/06/04 06:02:34;;;;;;;2.97;1.88;;;15.50;93.20;;;;;;5009018;28;20032;-48
2022/06/04 06:05:00;;;;;;;2.58;2.08;;;15.60;93.10;;;;;;5009424;28;20491;-51
2022/06/04 06:07:26;;;;;;;1.80;1.63;;;15.60;93.30;;;;;;5009149;28;20321;-51
2022/06/04 06:09:51;;;;;;;3.88;2.00;;;15.80;93.00;;;;;;5008388;28;20018;-48
2022/06/04 06:12:17;;;;;;;5.80;1.90;;;15.90;92.60;;;;;;5008803;28;20038;-49
2022/06/04 06:14:43;;;;;;;3.35;1.58;;;16.10;91.90;;;;;;5007692;28;20068;-51
2022/06/04 06:17:08;;;;;;;2.38;1.98;;;16.20;92.00;;;;;;5009187;28;20022;-49
2022/06/04 06:19:34;;;;;;;1.50;1.40;;;16.30;91.30;;;;;;5008461;28;20030;-48
2022/06/04 06:21:59;;;;;;;2.60;1.63;;;16.40;91.20;;;;;;5009134;28;20034;-49
2022/06/04 06:24:25;;;;;;;5.03;1.58;;;16.50;90.70;;;;;;5011888;28;20401;-51
2022/06/04 06:26:54;;;;;;;3.38;1.30;;;16.60;90.10;;;;;;5022446;28;20033;-48
2022/06/04 06:29:23;;;;;;;3.28;1.60;;;16.80;89.80;;;;;;5013194;28;20497;-49
2022/06/04 06:31:49;;;;;;;3.75;1.80;;;16.90;88.60;;;;;;5008556;28;20033;-49
2022/06/04 06:34:15;;;;;;;5.15;1.80;;;17.10;88.50;;;;;;5016230;28;20033;-49
2022/06/04 06:36:42;;;;;;;2.17;1.70;;;17.30;87.80;;;;;;5023968;28;20031;-48
2022/06/04 06:39:08;;;;;;;2.63;1.60;;;17.30;88.10;;;;;;5028156;28;20426;-48
2022/06/04 06:41:34;;;;;;;3.17;1.67;;;17.40;86.30;;;;;;5021090;28;20299;-48
2022/06/04 06:44:00;;;;;;;1.52;1.17;;;17.50;86.70;;;;;;5008748;28;20025;-48
2022/06/04 06:46:37;;;;;;;2.80;1.40;;;17.60;86.10;;;;;;5009144;28;20037;-48
2022/06/04 06:49:22;;;;;;;1.67;1.40;;;17.60;85.90;;;;;;5008724;28;20479;-50
2022/06/04 06:51:54;;;;;;;4.22;1.52;;;17.70;85.50;;;;;;5010808;28;20609;-48
2022/06/04 06:54:22;;;;;;;1.58;1.33;;;17.60;85.20;;;;;;5011083;28;20492;-48
2022/06/04 06:56:49;;;;;;;1.80;1.50;;;17.70;86.00;;;;;;5022560;28;20109;-48
2022/06/04 06:59:15;;;;;;;2.28;1.48;;;17.80;86.20;;;;;;5007321;28;20429;-48
2022/06/04 07:01:44;;;;;;;2.88;1.67;;;17.80;83.60;;;;;;5007866;28;20018;-49
2022/06/04 07:04:10;;;;;;;1.73;1.60;;;17.90;84.70;;;;;;5008417;28;20525;-48
2022/06/04 07:06:41;;;;;;;3.38;1.98;;;17.90;83.30;;;;;;5008411;28;20034;-47
2022/06/04 07:09:12;;;;;;;2.05;1.50;;;18.00;84.20;;;;;;5008589;28;20021;-49
2022/06/04 07:11:38;;;;;;;3.65;1.50;;;18.00;83.50;;;;;;5005207;28;20273;-49
2022/06/04 07:14:03;;;;;;;3.92;1.73;;;18.00;84.70;;;;;;5007798;28;20450;-48
2022/06/04 07:16:29;;;;;;;3.47;1.45;;;18.00;83.40;;;;;;5008552;28;20202;-48
2022/06/04 07:18:55;;;;;;;1.60;1.50;;;18.10;83.20;;;;;;5008437;28;20034;-48
2022/06/04 07:21:21;;;;;;;1.65;1.40;;;18.00;83.10;;;;;;5007790;28;20025;-48
2022/06/04 07:23:47;;;;;;;2.25;1.67;;;18.00;81.20;;;;;;5008532;28;20030;-48
2022/06/04 07:26:14;;;;;;;2.42;1.50;;;18.00;81.90;;;;;;5025160;28;20498;-48
2022/06/04 07:28:40;;;;;;;1.75;1.50;;;18.20;81.40;;;;;;5008470;28;20052;-49
2022/06/04 07:31:07;;;;;;;1.98;1.77;;;18.20;81.10;;;;;;5007797;28;20026;-47
2022/06/04 07:33:33;;;;;;;2.03;1.65;;;18.30;81.70;;;;;;5008487;28;20038;-48
2022/06/04 07:35:59;;;;;;;3.63;2.00;;;18.30;82.60;;;;;;5008446;28;20041;-49
2022/06/04 07:38:25;;;;;;;1.98;1.50;;;18.60;81.90;;;;;;5008523;28;20026;-50
2022/06/04 07:40:51;;;;;;;2.63;1.40;;;18.60;79.50;;;;;;5006594;28;20380;-49
2022/06/04 07:43:17;;;;;;;2.80;1.23;;;18.80;80.40;;;;;;5008089;28;20029;-48
2022/06/04 07:45:43;;;;;;;3.00;1.50;;;18.90;81.70;;;;;;5008247;28;20034;-48
2022/06/04 07:48:09;;;;;;;4.65;1.50;;;19.00;78.90;;;;;;5007074;28;20026;-48
2022/06/04 07:50:37;;;;;;;8.77;1.70;;;19.20;79.00;;;;;;5009276;28;20122;-49
2022/06/04 07:53:02;;;;;;;2.17;1.88;;;19.20;79.30;;;;;;5011574;28;20100;-49
2022/06/04 07:55:29;;;;;;;3.03;1.80;;;19.40;79.10;;;;;;5023231;28;20120;-50
2022/06/04 07:57:54;;;;;;;1.58;1.42;;;19.60;80.50;;;;;;5016669;28;20072;-48
2022/06/04 08:00:20;;;;;;;6.55;1.40;;;19.80;77.40;;;;;;5010644;28;20117;-49
2022/06/04 08:02:46;;;;;;;2.63;1.50;;;20.10;79.10;;;;;;5011289;28;20049;-48
2022/06/04 08:05:13;;;;;;;1.85;1.45;;;20.40;77.80;;;;;;5011525;28;20097;-48
2022/06/04 08:07:39;;;;;;;2.40;1.80;;;20.70;77.80;;;;;;5011384;28;20561;-48
2022/06/04 08:10:06;;;;;;;4.97;1.70;;;20.80;72.60;;;;;;5009325;28;20030;-48
2022/06/04 08:12:34;;;;;;;2.60;1.60;;;21.10;73.40;;;;;;5011273;28;20029;-49
2022/06/04 08:15:02;;;;;;;2.05;1.42;;;21.70;74.60;;;;;;5010898;28;20041;-51
2022/06/04 08:17:30;;;;;;;3.22;1.50;;;23.00;70.90;;;;;;5019455;28;20557;-51
2022/06/04 08:19:56;;;;;;;2.05;1.10;;;24.70;66.60;;;;;;5030187;28;20112;-51
2022/06/04 08:22:21;;;;;;;1.38;1.20;;;25.90;62.20;;;;;;5028052;28;20442;-51
2022/06/04 08:24:47;;;;;;;2.55;1.77;;;26.40;61.10;;;;;;5017094;28;20211;-52
2022/06/04 08:27:13;;;;;;;1.13;1.02;;;26.90;57.40;;;;;;5021524;28;20105;-51
2022/06/04 08:29:38;;;;;;;1.45;1.13;;;27.70;55.10;;;;;;5010285;28;20022;-52
2022/06/04 08:32:05;;;;;;;1.67;1.38;;;28.20;54.10;;;;;;5026880;28;20033;-52
2022/06/04 08:34:31;;;;;;;1.80;1.60;;;28.70;53.30;;;;;;5021462;28;20037;-53
2022/06/04 08:36:57;;;;;;;1.95;1.10;;;30.00;52.20;;;;;;5010531;28;20037;-54
2022/06/04 08:39:23;;;;;;;2.05;1.17;;;30.30;49.90;;;;;;5010452;28;20034;-52
2022/06/04 08:42:13;;;;;;;4.45;1.30;;;31.10;47.90;;;;;;5009565;28;20033;-52
2022/06/04 08:44:38;;;;;;;;;;;31.00;46.90;;;;;;5011056;28;20053;-52
2022/06/04 08:47:07;;;;;;;5.07;2.67;;;31.30;47.20;;;;;;5010751;28;19952;-53
2022/06/04 08:49:48;;;;;;;3.15;1.13;;;31.80;46.80;;;;;;5008607;28;20014;-53
2022/06/04 08:52:16;;;;;;;1.75;1.10;;;32.30;45.80;;;;;;5009154;28;20025;-52
2022/06/04 08:57:41;;;;;;;2.13;1.05;;;33.30;43.40;;;;;;5019188;28;20553;-53
2022/06/04 09:00:25;;;;;;;3.22;1.58;;;32.90;44.20;;;;;;5009627;28;20033;-53
2022/06/04 09:03:21;;;;;;;1.67;1.15;;;33.40;44.00;;;;;;5010656;28;20025;-53
2022/06/04 09:06:22;;;;;;;2.47;1.27;;;34.00;42.90;;;;;;5010551;28;20022;-53
2022/06/04 09:09:08;;;;;;;2.22;1.20;;;33.80;44.40;;;;;;5009346;28;20391;-54
2022/06/04 09:11:52;;;;;;;2.67;1.60;;;34.10;42.50;;;;;;5009856;28;20118;-52
2022/06/04 09:14:31;;;;;;;4.30;1.70;;;34.50;41.90;;;;;;5010254;28;20507;-52
2022/06/04 09:17:01;;;;;;;4.78;1.55;;;34.90;41.20;;;;;;5010142;28;20029;-52
2022/06/04 09:19:32;;;;;;;2.10;1.20;;;34.60;42.10;;;;;;5010086;28;20494;-53
2022/06/04 09:21:58;;;;;;;3.63;1.42;;;34.90;41.20;;;;;;5009823;28;20033;-52
2022/06/04 09:24:25;;;;;;;5.45;1.90;;;34.80;40.60;;;;;;5013065;28;20026;-52
2022/06/04 09:27:05;;;;;;;1.98;1.30;;;34.60;40.70;;;;;;5023584;28;20518;-52
2022/06/04 09:29:43;;;;;;;4.70;1.50;;;34.70;41.30;;;;;;5009364;28;20467;-52
2022/06/04 09:32:17;;;;;;;2.15;1.50;;;34.50;40.40;;;;;;5008597;28;20450;-52
2022/06/04 09:34:48;;;;;;;3.35;1.63;;;33.70;41.70;;;;;;5009899;28;20025;-52
2022/06/04 09:37:13;;;;;;;4.50;1.60;;;33.40;42.00;;;;;;5008407;28;20032;-53
2022/06/04 09:39:42;;;;;;;3.38;1.50;;;33.00;42.90;;;;;;5007893;28;20021;-52
2022/06/04 09:42:13;;;;;;;2.22;1.48;;;33.60;42.40;;;;;;5009655;28;20046;-52
2022/06/04 09:45:05;;;;;;;2.47;1.85;;;34.10;41.70;;;;;;5009954;28;20033;-54
2022/06/04 09:47:41;;;;;;;1.63;1.30;;;34.20;42.70;;;;;;5009754;28;20022;-52
2022/06/04 09:50:24;;;;;;;2.85;1.40;;;34.10;41.70;;;;;;5008964;28;20065;-52
2022/06/04 09:53:21;;;;;;;2.78;1.50;;;33.40;42.40;;;;;;5009331;28;20510;-52
2022/06/04 09:55:51;;;;;;;3.15;1.60;;;34.60;41.80;;;;;;5022823;28;20457;-52
2022/06/04 09:58:29;;;;;;;5.30;1.70;;;34.90;41.50;;;;;;5011205;28;20115;-52
2022/06/04 10:01:00;;;;;;;1.25;1.13;;;35.30;42.00;;;;;;5008994;28;20033;-53
2022/06/04 10:03:29;;;;;;;2.85;1.42;;;35.80;40.60;;;;;;5009311;28;20029;-52
2022/06/04 10:06:05;;;;;;;1.40;1.20;;;35.50;40.90;;;;;;5009670;28;20109;-54
2022/06/04 10:09:54;;;;;;;2.83;1.70;;;35.60;39.90;;;;;;5009375;28;20029;-53
2022/06/04 10:11:20;;;;;;;3.00;1.50;;;36.20;40.30;;;;;;5008343;28;20079;-53
2022/06/04 10:13:49;;;;;;;2.47;1.20;;;36.30;40.80;;;;;;5006594;28;20033;-53
2022/06/04 10:16:33;;;;;;;1.20;1.03;;;36.90;40.50;;;;;;5007514;28;20029;-52
2022/06/04 10:19:12;;;;;;;2.20;1.42;;;36.50;40.00;;;;;;5008847;28;20089;-53
2022/06/04 10:21:41;;;;;;;1.40;1.30;;;36.70;39.10;;;;;;5008316;28;20279;-53
2022/06/04 10:24:19;;;;;;;5.17;1.67;;;36.70;39.40;;;;;;5009554;28;20083;-53
2022/06/04 10:27:21;;;;;;;2.22;1.10;;;37.10;38.60;;;;;;5021742;28;20128;-53
2022/06/04 10:30:00;;;;;;;3.97;1.30;;;37.10;39.50;;;;;;5006963;28;20033;-54
2022/06/04 10:32:37;;;;;;;1.83;1.30;;;37.70;39.60;;;;;;5028700;28;20053;-53
2022/06/04 10:35:12;;;;;;;3.00;1.55;;;37.10;38.20;;;;;;5027429;28;20259;-54
2022/06/04 10:37:56;;;;;;;1.20;1.10;;;36.20;39.10;;;;;;5028923;28;20108;-53
2022/06/04 10:40:31;;;;;;;3.05;1.58;;;36.50;39.80;;;;;;5028079;28;20025;-54
2022/06/04 10:43:33;;;;;;;3.08;1.70;;;36.20;39.50;;;;;;5028287;28;20033;-52
2022/06/04 10:46:14;;;;;;;1.90;1.20;;;35.10;40.40;;;;;;5018260;28;20494;-51
2022/06/04 10:49:07;;;;;;;4.00;1.70;;;34.80;41.60;;;;;;5027356;28;20083;-50
2022/06/04 10:52:09;;;;;;;1.45;1.33;;;34.60;41.70;;;;;;5028051;28;20029;-50
2022/06/04 10:54:43;;;;;;;1.85;1.42;;;34.10;42.20;;;;;;5028024;28;20488;-50
2022/06/04 10:57:24;;;;;;;7.45;2.08;;;34.40;42.00;;;;;;5018416;28;20034;-52
2022/06/04 10:59:50;;;;;;;2.45;1.45;;;35.30;40.90;;;;;;5007962;28;20081;-51
2022/06/04 11:02:41;;;;;;;3.22;1.40;;;34.70;41.00;;;;;;5008346;28;20057;-51
2022/06/04 11:05:19;;;;;;;2.15;1.67;;;35.50;39.20;;;;;;5008491;28;20033;-51
2022/06/04 11:08:15;;;;;;;1.40;1.30;;;36.20;39.70;;;;;;5008438;28;20522;-51
2022/06/04 11:10:48;;;;;;;2.08;1.40;;;35.80;39.20;;;;;;5008396;28;20056;-51
2022/06/04 11:13:20;;;;;;;3.03;1.30;;;36.00;39.90;;;;;;5008331;28;20018;-52
2022/06/04 11:16:19;;;;;;;3.13;1.50;;;36.20;41.30;;;;;;5008659;28;20034;-52
2022/06/04 11:18:50;;;;;;;2.30;1.80;;;35.50;40.90;;;;;;5008496;28;20107;-52
2022/06/04 11:21:54;;;;;;;2.60;1.63;;;35.50;39.80;;;;;;5007790;28;20026;-52
2022/06/04 11:24:40;;;;;;;1.95;1.50;;;35.30;39.90;;;;;;5010113;28;20034;-52
2022/06/04 11:27:26;;;;;;;2.65;1.33;;;35.20;39.60;;;;;;5024089;28;20105;-51
2022/06/04 11:29:53;;;;;;;1.67;1.40;;;34.90;40.00;;;;;;5011667;28;20021;-52
2022/06/04 11:32:47;;;;;;;2.20;1.48;;;34.60;42.20;;;;;;5012220;28;20313;-51
2022/06/04 11:35:22;;;;;;;1.58;1.30;;;35.00;42.90;;;;;;5012161;28;20022;-51
2022/06/04 11:38:21;;;;;;;1.30;1.20;;;35.50;40.00;;;;;;5012333;28;20306;-52
2022/06/04 11:41:25;;;;;;;4.00;1.15;;;35.90;39.40;;;;;;5011377;28;20037;-52
2022/06/04 11:44:07;;;;;;;2.92;1.63;;;35.90;41.00;;;;;;5011406;28;20172;-51
2022/06/04 11:47:11;;;;;;;2.05;1.35;;;35.60;40.90;;;;;;5012000;28;20021;-51
2022/06/04 11:49:49;;;;;;;1.40;1.30;;;35.90;40.40;;;;;;5011420;28;20499;-51
2022/06/04 11:52:29;;;;;;;2.50;1.60;;;36.50;39.80;;;;;;5031327;28;20033;-51
2022/06/04 11:55:09;;;;;;;2.30;1.50;;;36.20;39.80;;;;;;5031136;28;20017;-52
2022/06/04 11:57:40;;;;;;;2.00;1.45;;;35.80;40.10;;;;;;5022883;28;20548;-51
2022/06/04 12:00:21;;;;;;;2.08;1.48;;;35.40;41.80;;;;;;5030096;28;20497;-51
2022/06/04 12:03:15;;;;;;;2.78;1.50;;;34.50;40.90;;;;;;5030433;28;20113;-50
2022/06/04 12:06:07;;;;;;;3.17;1.80;;;34.20;42.50;;;;;;5031119;28;20017;-50
2022/06/04 12:08:55;;;;;;;2.42;1.75;;;33.30;42.40;;;;;;5031145;28;20033;-50
2022/06/04 12:11:46;;;;;;;2.63;2.17;;;32.60;44.10;;;;;;5030236;28;20018;-49
2022/06/04 12:14:30;;;;;;;3.65;1.70;;;32.30;45.60;;;;;;5030483;28;20087;-50
2022/06/04 12:17:08;;;;;;;4.10;2.20;;;31.70;44.70;;;;;;5031143;28;20075;-50
2022/06/04 12:25:44;;;;;;;2.17;1.90;;;30.90;47.20;;;;;;5018873;28;20030;-50
2022/06/04 12:28:30;;;;;;;3.00;2.50;;;30.50;48.00;;;;;;5028726;28;20509;-47
2022/06/04 12:31:00;;;;;;;2.20;2.00;;;30.50;47.90;;;;;;5030261;28;20048;-49
2022/06/04 12:33:33;;;;;;;2.28;2.10;;;30.80;47.00;;;;;;5030538;28;20100;-47
2022/06/04 12:36:02;;;;;;;3.85;2.30;;;30.60;46.50;;;;;;5030119;28;20033;-48
2022/06/04 12:38:28;;;;;;;7.88;2.80;;;30.60;46.80;;;;;;5030483;28;20029;-47
2022/06/04 12:41:16;;;;;;;3.15;2.40;;;30.30;46.70;;;;;;5029975;28;20028;-50
2022/06/04 12:43:58;;;;;;;4.53;2.50;;;30.30;45.90;;;;;;5030426;28;20613;-50
2022/06/04 12:46:24;;;;;;;2.50;2.28;;;30.20;48.30;;;;;;5029116;28;20418;-50
2022/06/04 12:48:55;;;;;;;5.20;2.40;;;30.30;47.10;;;;;;5030357;28;20021;-48
2022/06/04 12:51:48;;;;;;;2.65;2.25;;;30.30;47.40;;;;;;5029699;28;20498;-50
2022/06/04 12:54:44;;;;;;;3.40;2.70;;;30.20;46.60;;;;;;5030040;28;20029;-50
2022/06/04 12:57:36;;;;;;;6.88;2.40;;;30.10;47.80;;;;;;5021254;28;20242;-48
2022/06/04 13:00:13;;;;;;;4.97;2.67;;;29.90;47.50;;;;;;5009861;28;20026;-49
2022/06/04 13:02:43;;;;;;;6.13;2.80;;;29.50;45.50;;;;;;5010248;28;20057;-48
2022/06/04 13:05:14;;;;;;;3.20;2.08;;;29.50;47.60;;;;;;5022157;28;20053;-49
2022/06/04 13:08:26;;;;;;;2.97;2.47;;;29.20;49.00;;;;;;5025533;28;20259;-48
2022/06/04 13:11:16;;;;;;;4.60;3.08;;;28.90;48.90;;;;;;5003038;28;20049;-49
2022/06/04 13:14:05;;;;;;;5.10;3.35;;;28.50;48.50;;;;;;5027782;28;20029;-49
2022/06/04 13:16:32;;;;;;;4.70;3.00;;;28.40;50.70;;;;;;5027088;28;20021;-50
2022/06/04 13:19:22;;;;;;;3.67;3.15;;;28.20;50.80;;;;;;5026714;28;20563;-49
2022/06/04 13:21:49;;;;;;;4.88;2.88;;;28.00;51.10;;;;;;5027018;28;20120;-49
2022/06/04 13:24:22;;;;;;;3.40;2.80;;;27.80;52.00;;;;;;5027329;28;20246;-50
2022/06/04 13:27:02;;;;;;;3.25;2.60;;;27.90;51.90;;;;;;5018990;28;20030;-48
2022/06/04 13:29:32;;;;;;;;;;;28.20;53.70;;;;;;5025753;28;20310;-48
2022/06/04 13:32:01;;;;;;;3.30;2.83;;;28.40;50.90;;;;;;5026620;28;19913;-49
2022/06/04 13:34:31;;;;;;;3.75;3.22;;;28.40;51.00;;;;;;5022286;28;20220;-48